createdAt,value
2022-11-24T00:01:52.544Z,3.22
2022-11-24T00:04:19.087Z,2.85
2022-11-24T00:06:45.579Z,3.53
2022-11-24T00:09:13.538Z,3.20
2022-11-24T00:11:40.032Z,3.35
2022-11-24T00:14:06.655Z,3.20
2022-11-24T00:16:34.611Z,3.20
2022-11-24T00:19:02.128Z,3.78
2022-11-24T00:21:29.539Z,3.10
2022-11-24T00:23:56.225Z,3.28
2022-11-24T00:26:30.169Z,2.90
2022-11-24T00:29:01.317Z,2.83
2022-11-24T00:31:38.013Z,3.20
2022-11-24T00:34:06.312Z,3.38
2022-11-24T00:36:34.094Z,3.25
2022-11-24T00:39:02.520Z,2.85
2022-11-24T00:41:29.294Z,2.97
2022-11-24T00:43:55.829Z,2.67
2022-11-24T00:46:23.001Z,2.50
2022-11-24T00:48:49.621Z,2.75
2022-11-24T00:51:16.831Z,2.63
2022-11-24T00:53:43.501Z,2.72
2022-11-24T00:56:10.073Z,3.03
2022-11-24T00:58:36.604Z,2.90
2022-11-24T01:01:24.223Z,3.17
2022-11-24T01:06:18.699Z,2.25
2022-11-24T01:08:45.323Z,2.95
2022-11-24T01:11:19.007Z,2.60
2022-11-24T01:13:46.745Z,2.88
2022-11-24T01:16:24.028Z,2.70
2022-11-24T01:18:50.691Z,2.92
2022-11-24T01:21:17.608Z,2.85
2022-11-24T01:23:44.230Z,3.25
2022-11-24T01:26:12.211Z,3.50
2022-11-24T01:28:44.907Z,3.33
2022-11-24T01:31:13.679Z,3.22
2022-11-24T01:33:40.383Z,2.78
2022-11-24T01:36:07.049Z,2.88
2022-11-24T01:38:33.603Z,2.80
2022-11-24T01:41:01.665Z,3.55
2022-11-24T01:43:28.244Z,2.70
2022-11-24T01:45:54.765Z,2.95
2022-11-24T01:48:27.276Z,2.80
2022-11-24T01:51:14.956Z,2.72
2022-11-24T01:53:42.396Z,2.75
2022-11-24T01:56:08.996Z,2.92
2022-11-24T01:58:35.461Z,2.75
2022-11-24T02:01:02.005Z,2.88
2022-11-24T02:03:30.875Z,3.30
2022-11-24T02:06:06.195Z,3.30
2022-11-24T02:08:39.744Z,2.90
2022-11-24T02:11:06.422Z,2.88
2022-11-24T02:13:34.468Z,2.83
2022-11-24T02:16:01.293Z,3.20
2022-11-24T02:18:27.830Z,3.17
2022-11-24T02:20:54.383Z,3.80
2022-11-24T02:23:23.465Z,3.38
2022-11-24T02:25:53.786Z,2.67
2022-11-24T02:28:21.399Z,2.83
2022-11-24T02:30:48.216Z,2.60
2022-11-24T02:33:14.795Z,3.03
2022-11-24T02:35:41.348Z,2.90
2022-11-24T02:38:12.918Z,3.15
2022-11-24T02:40:39.848Z,3.50
2022-11-24T02:43:13.797Z,3.10
2022-11-24T02:45:40.296Z,2.78
2022-11-24T02:48:07.306Z,3.00
2022-11-24T02:50:33.819Z,3.08
2022-11-24T02:53:00.327Z,3.33
2022-11-24T02:55:26.829Z,3.17
2022-11-24T02:57:53.295Z,3.13
2022-11-24T03:00:19.800Z,3.30
2022-11-24T03:02:46.343Z,3.55
2022-11-24T03:05:12.930Z,3.58
2022-11-24T03:07:39.523Z,3.22
2022-11-24T03:10:06.314Z,2.72
2022-11-24T03:12:32.781Z,2.85
2022-11-24T03:14:59.282Z,2.85
2022-11-24T03:17:25.747Z,3.17
2022-11-24T03:19:52.209Z,3.33
2022-11-24T03:22:21.074Z,2.50
2022-11-24T03:24:47.493Z,2.88
2022-11-24T03:27:14.033Z,3.17
2022-11-24T03:29:40.570Z,2.90
2022-11-24T03:32:07.076Z,3.13
2022-11-24T03:34:33.674Z,3.50
2022-11-24T03:37:00.377Z,2.70
2022-11-24T03:39:26.848Z,3.38
2022-11-24T03:41:53.329Z,3.20
2022-11-24T03:44:19.834Z,2.92
2022-11-24T03:46:47.631Z,3.53
2022-11-24T03:49:14.159Z,3.85
2022-11-24T03:51:40.690Z,3.17
2022-11-24T03:54:07.428Z,2.88
2022-11-24T03:56:33.907Z,3.15
2022-11-24T03:59:00.433Z,3.10
2022-11-24T04:01:26.973Z,3.17
2022-11-24T04:03:53.507Z,3.72
2022-11-24T04:06:19.976Z,3.10
2022-11-24T04:08:46.453Z,3.88
2022-11-24T04:11:12.918Z,3.60
2022-11-24T04:13:39.435Z,2.67
2022-11-24T04:16:06.258Z,3.10
2022-11-24T04:18:32.773Z,3.10
2022-11-24T04:21:01.994Z,4.03
2022-11-24T04:23:28.496Z,4.00
2022-11-24T04:25:54.952Z,3.60
2022-11-24T04:28:21.522Z,3.70
2022-11-24T04:30:47.972Z,4.32
2022-11-24T04:33:14.446Z,4.20
2022-11-24T04:35:40.913Z,4.15
2022-11-24T04:38:07.390Z,4.55
2022-11-24T04:40:33.861Z,4.75
2022-11-24T04:43:00.323Z,4.32
2022-11-24T04:45:26.777Z,4.10
2022-11-24T04:47:53.242Z,3.45
2022-11-24T04:50:19.675Z,4.80
2022-11-24T04:52:46.134Z,4.63
2022-11-24T04:55:12.585Z,3.92
2022-11-24T04:57:39.071Z,4.78
2022-11-24T05:00:06.186Z,4.13
2022-11-24T05:02:32.712Z,4.80
2022-11-24T05:04:59.168Z,4.60
2022-11-24T05:07:25.627Z,3.67
2022-11-24T05:09:59.237Z,4.82
2022-11-24T05:12:28.970Z,3.97
2022-11-24T05:14:55.406Z,4.22
2022-11-24T05:17:21.799Z,4.43
2022-11-24T05:19:48.206Z,4.35
2022-11-24T05:22:14.619Z,3.90
2022-11-24T05:24:41.117Z,3.85
2022-11-24T05:27:07.512Z,4.45
2022-11-24T05:29:33.917Z,4.57
2022-11-24T05:32:00.284Z,4.53
2022-11-24T05:34:26.721Z,4.65
2022-11-24T05:36:53.124Z,4.80
2022-11-24T05:39:22.695Z,4.30
2022-11-24T05:41:49.076Z,4.78
2022-11-24T05:44:15.483Z,4.45
2022-11-24T05:46:41.919Z,4.93
2022-11-24T05:49:08.453Z,3.75
2022-11-24T05:51:34.868Z,4.72
2022-11-24T05:54:01.272Z,4.80
2022-11-24T05:56:27.713Z,4.22
2022-11-24T05:58:54.219Z,4.18
2022-11-24T06:01:20.695Z,4.68
2022-11-24T06:03:47.103Z,4.40
2022-11-24T06:06:13.550Z,5.68
2022-11-24T06:08:39.968Z,4.43
2022-11-24T06:11:06.474Z,3.83
2022-11-24T06:13:32.923Z,4.15
2022-11-24T06:15:59.534Z,4.55
2022-11-24T06:18:26.014Z,3.97
2022-11-24T06:21:09.671Z,4.95
2022-11-24T06:23:39.084Z,4.10
2022-11-24T06:26:05.650Z,4.20
2022-11-24T06:28:32.135Z,4.32
2022-11-24T06:31:02.543Z,5.05
2022-11-24T06:33:34.815Z,4.10
2022-11-24T06:36:02.271Z,4.35
2022-11-24T06:38:28.869Z,3.95
2022-11-24T06:41:01.743Z,4.93
2022-11-24T06:43:28.773Z,5.00
2022-11-24T06:45:55.784Z,4.53
2022-11-24T06:48:22.699Z,3.67
2022-11-24T06:50:49.115Z,4.70
2022-11-24T06:53:15.636Z,5.07
2022-11-24T06:55:42.089Z,4.45
2022-11-24T06:58:08.510Z,4.78
2022-11-24T07:00:34.940Z,4.85
2022-11-24T07:03:01.480Z,4.40
2022-11-24T07:05:27.947Z,4.10
2022-11-24T07:07:54.380Z,5.20
2022-11-24T07:10:20.786Z,5.40
2022-11-24T07:12:47.243Z,4.80
2022-11-24T07:15:13.637Z,5.13
2022-11-24T07:17:40.178Z,4.50
2022-11-24T07:20:07.662Z,5.28
2022-11-24T07:22:34.345Z,4.70
2022-11-24T07:25:00.801Z,5.07
2022-11-24T07:27:27.775Z,5.07
2022-11-24T07:29:54.267Z,4.60
2022-11-24T07:32:20.706Z,4.50
2022-11-24T07:34:47.226Z,5.10
2022-11-24T07:37:13.644Z,3.65
2022-11-24T07:39:40.055Z,5.22
2022-11-24T07:42:06.464Z,5.07
2022-11-24T07:44:33.251Z,4.80
2022-11-24T07:46:59.834Z,5.25
2022-11-24T07:49:26.235Z,4.72
2022-11-24T07:51:52.677Z,4.70
2022-11-24T07:54:19.082Z,4.60
2022-11-24T07:56:48.261Z,4.75
2022-11-24T07:59:14.867Z,4.90
2022-11-24T08:01:41.363Z,4.40
2022-11-24T08:04:07.885Z,4.53
2022-11-24T08:06:39.813Z,5.30
2022-11-24T08:09:10.875Z,4.60
2022-11-24T08:11:37.279Z,5.30
2022-11-24T08:14:03.861Z,5.97
2022-11-24T08:16:30.388Z,6.05
2022-11-24T08:18:56.868Z,5.18
2022-11-24T08:21:23.699Z,5.35
2022-11-24T08:23:53.309Z,5.75
2022-11-24T08:26:19.761Z,5.38
2022-11-24T08:28:46.628Z,5.18
2022-11-24T08:31:14.730Z,5.70
2022-11-24T08:33:41.355Z,5.65
2022-11-24T08:36:12.868Z,5.45
2022-11-24T08:38:39.578Z,5.90
2022-11-24T08:41:08.323Z,5.43
2022-11-24T08:43:39.560Z,5.93
2022-11-24T08:46:09.335Z,5.20
2022-11-24T08:48:38.422Z,5.07
2022-11-24T08:51:12.291Z,5.47
2022-11-24T08:53:39.236Z,5.13
2022-11-24T08:56:05.950Z,4.75
2022-11-24T08:58:32.546Z,5.13
2022-11-24T09:01:08.770Z,4.65
2022-11-24T09:03:35.400Z,5.07
2022-11-24T09:06:02.279Z,4.75
2022-11-24T09:08:32.039Z,4.93
2022-11-24T09:11:09.420Z,4.72
2022-11-24T09:13:36.094Z,4.82
2022-11-24T09:16:07.173Z,4.95
2022-11-24T09:18:33.609Z,5.20
2022-11-24T09:21:17.319Z,4.72
2022-11-24T09:23:44.009Z,3.70
2022-11-24T09:26:11.366Z,4.90
2022-11-24T09:28:37.802Z,3.97
2022-11-24T09:31:05.349Z,4.72
2022-11-24T09:33:31.869Z,3.40
2022-11-24T09:35:58.471Z,3.95
2022-11-24T09:38:24.873Z,4.10
2022-11-24T09:40:55.521Z,3.80
2022-11-24T09:43:28.058Z,3.40
2022-11-24T09:46:18.874Z,3.58
2022-11-24T09:48:47.414Z,3.80
2022-11-24T09:51:14.367Z,4.18
2022-11-24T09:53:55.035Z,3.95
2022-11-24T09:56:33.267Z,3.95
2022-11-24T09:59:10.569Z,4.18
2022-11-24T10:01:39.848Z,3.20
2022-11-24T10:04:18.631Z,3.75
2022-11-24T10:07:05.623Z,3.00
2022-11-24T10:10:00.687Z,3.40
2022-11-24T10:12:36.685Z,3.28
2022-11-24T10:15:41.809Z,2.90
2022-11-24T10:18:16.512Z,3.95
2022-11-24T10:20:49.334Z,3.20
2022-11-24T10:23:35.773Z,3.17
2022-11-24T10:26:18.819Z,3.33
2022-11-24T10:28:54.547Z,3.33
2022-11-24T10:31:27.348Z,2.67
2022-11-24T10:33:53.811Z,3.15
2022-11-24T10:36:28.362Z,2.90
2022-11-24T10:39:04.858Z,2.25
2022-11-24T10:41:57.577Z,3.72
2022-11-24T10:44:23.999Z,3.78
2022-11-24T10:46:50.477Z,2.33
2022-11-24T10:49:30.008Z,3.38
2022-11-24T10:52:01.631Z,2.75
2022-11-24T10:54:28.313Z,2.38
2022-11-24T10:56:54.735Z,3.45
2022-11-24T10:59:24.448Z,3.78
2022-11-24T11:01:51.756Z,3.38
2022-11-24T11:04:25.128Z,3.13
2022-11-24T11:06:51.660Z,2.97
2022-11-24T11:09:26.275Z,3.63
2022-11-24T11:11:56.954Z,3.67
2022-11-24T11:14:41.542Z,2.92
2022-11-24T11:17:53.573Z,3.20
2022-11-24T11:20:26.736Z,3.38
2022-11-24T11:22:53.339Z,3.88
2022-11-24T11:25:33.488Z,3.00
2022-11-24T11:28:21.673Z,4.10
2022-11-24T11:34:13.931Z,3.65
2022-11-24T11:36:44.925Z,3.20
2022-11-24T11:39:17.535Z,3.38
2022-11-24T11:41:44.868Z,4.18
2022-11-24T11:44:33.097Z,3.90
2022-11-24T11:46:59.921Z,3.13
2022-11-24T11:49:27.609Z,2.55
2022-11-24T11:52:15.127Z,3.50
2022-11-24T11:57:29.931Z,3.03
2022-11-24T12:00:04.097Z,3.03
2022-11-24T12:02:38.618Z,3.63
2022-11-24T12:05:40.559Z,3.55
2022-11-24T12:09:03.342Z,2.67
2022-11-24T12:11:35.008Z,3.25
2022-11-24T12:14:07.129Z,3.28
2022-11-24T12:16:44.254Z,3.05
2022-11-24T12:19:38.446Z,3.38
2022-11-24T12:22:18.431Z,3.00
2022-11-24T12:25:34.793Z,3.30
2022-11-24T12:28:22.794Z,2.97
2022-11-24T12:31:05.033Z,2.45
2022-11-24T12:33:40.169Z,2.88
2022-11-24T12:36:21.800Z,2.83
2022-11-24T12:41:43.267Z,3.78
2022-11-24T12:44:24.254Z,3.78
2022-11-24T12:47:10.076Z,4.05
2022-11-24T12:49:51.771Z,4.07
2022-11-24T12:54:49.077Z,3.03
2022-11-24T12:57:27.942Z,4.40
2022-11-24T13:00:00.292Z,3.40
2022-11-24T13:02:57.499Z,3.80
2022-11-24T13:05:43.587Z,3.30
2022-11-24T13:08:09.969Z,3.65
2022-11-24T13:10:55.241Z,3.15
2022-11-24T13:13:23.835Z,4.22
2022-11-24T13:18:47.923Z,3.67
2022-11-24T13:21:42.343Z,3.78
2022-11-24T13:24:19.021Z,3.75
2022-11-24T13:26:53.234Z,4.03
2022-11-24T13:29:29.726Z,3.38
2022-11-24T13:32:18.838Z,3.67
2022-11-24T13:34:45.111Z,3.72
2022-11-24T13:37:31.897Z,3.70
2022-11-24T13:40:08.242Z,3.70
2022-11-24T13:42:43.861Z,3.65
2022-11-24T13:45:39.694Z,3.33
2022-11-24T13:48:18.566Z,3.28
2022-11-24T13:50:51.249Z,3.47
2022-11-24T13:53:41.949Z,3.40
2022-11-24T13:56:14.476Z,2.78
2022-11-24T13:58:51.827Z,3.33
2022-11-24T14:01:25.629Z,3.20
2022-11-24T14:04:32.332Z,2.85
2022-11-24T14:07:07.360Z,3.55
2022-11-24T14:09:42.060Z,3.08
2022-11-24T14:12:19.823Z,2.78
2022-11-24T14:14:48.430Z,3.65
2022-11-24T14:17:27.949Z,3.13
2022-11-24T14:19:57.447Z,2.78
2022-11-24T14:22:24.589Z,3.08
2022-11-24T14:24:55.773Z,3.70
2022-11-24T14:27:29.163Z,4.40
2022-11-24T14:30:13.165Z,3.90
2022-11-24T14:32:40.318Z,3.80
2022-11-24T14:35:30.824Z,3.53
2022-11-24T14:37:57.432Z,3.20
2022-11-24T14:40:43.486Z,2.40
2022-11-24T14:43:29.655Z,2.92
2022-11-24T14:45:59.373Z,3.22
2022-11-24T14:48:27.825Z,3.17
2022-11-24T14:51:04.017Z,2.47
2022-11-24T14:53:30.480Z,2.78
2022-11-24T14:56:09.740Z,2.95
2022-11-24T14:58:41.984Z,3.00
2022-11-24T15:01:21.641Z,3.10
2022-11-24T15:04:13.084Z,2.85
2022-11-24T15:06:50.812Z,2.60
2022-11-24T15:09:21.061Z,3.17
2022-11-24T15:11:47.488Z,2.83
2022-11-24T15:14:49.957Z,3.22
2022-11-24T15:17:18.014Z,2.80
2022-11-24T15:19:44.436Z,4.00
2022-11-24T15:22:29.275Z,3.28
2022-11-24T15:24:55.678Z,3.22
2022-11-24T15:27:22.117Z,3.42
2022-11-24T15:29:48.539Z,2.90
2022-11-24T15:32:15.013Z,3.28
2022-11-24T15:34:41.447Z,4.00
2022-11-24T15:37:10.868Z,3.53
2022-11-24T15:39:37.262Z,3.45
2022-11-24T15:42:03.736Z,3.03
2022-11-24T15:44:30.223Z,3.55
2022-11-24T15:46:56.706Z,2.90
2022-11-24T15:49:23.207Z,3.22
2022-11-24T15:51:49.643Z,3.30
2022-11-24T15:54:16.561Z,3.65
2022-11-24T15:56:42.970Z,2.78
2022-11-24T15:59:18.534Z,3.50
2022-11-24T16:01:46.911Z,2.80
2022-11-24T16:04:13.342Z,3.13
2022-11-24T16:06:39.751Z,3.85
2022-11-24T16:09:06.166Z,3.22
2022-11-24T16:11:32.571Z,4.18
2022-11-24T16:13:59.012Z,3.20
2022-11-24T16:16:25.540Z,3.40
2022-11-24T16:18:52.214Z,3.03
2022-11-24T16:21:18.614Z,3.42
2022-11-24T16:23:45.074Z,3.40
2022-11-24T16:26:11.504Z,3.35
2022-11-24T16:28:37.912Z,3.10
2022-11-24T16:31:04.452Z,3.72
2022-11-24T16:33:31.070Z,3.65
2022-11-24T16:35:57.471Z,2.85
2022-11-24T16:38:23.881Z,3.83
2022-11-24T16:40:51.374Z,3.60
2022-11-24T16:43:17.872Z,4.25
2022-11-24T16:45:45.657Z,3.08
2022-11-24T16:48:12.262Z,3.20
2022-11-24T16:50:38.700Z,3.60
2022-11-24T16:53:05.142Z,3.55
2022-11-24T16:55:31.566Z,4.07
2022-11-24T16:57:57.987Z,3.30
2022-11-24T17:00:24.464Z,3.00
2022-11-24T17:03:00.270Z,3.10
2022-11-24T17:05:27.006Z,3.25
2022-11-24T17:07:54.896Z,3.65
2022-11-24T17:10:21.514Z,3.40
2022-11-24T17:12:47.929Z,3.50
2022-11-24T17:15:32.677Z,4.32
2022-11-24T17:20:46.611Z,4.18
2022-11-24T17:23:13.031Z,4.05
2022-11-24T17:25:39.447Z,4.03
2022-11-24T17:28:05.830Z,3.60
2022-11-24T17:30:32.251Z,4.20
2022-11-24T17:32:59.983Z,3.95
2022-11-24T17:35:26.543Z,4.40
2022-11-24T17:37:53.053Z,3.70
2022-11-24T17:40:34.693Z,3.97
2022-11-24T17:43:01.220Z,3.83
2022-11-24T17:45:28.272Z,4.82
2022-11-24T17:47:55.074Z,3.97
2022-11-24T17:50:25.672Z,3.13
2022-11-24T17:52:52.662Z,3.70
2022-11-24T17:55:20.193Z,4.45
2022-11-24T17:57:46.593Z,3.60
2022-11-24T18:00:14.031Z,4.30
2022-11-24T18:02:40.485Z,4.50
2022-11-24T18:05:07.259Z,3.92
2022-11-24T18:07:35.438Z,3.90
2022-11-24T18:10:01.933Z,5.00
2022-11-24T18:12:28.407Z,4.68
2022-11-24T18:14:54.800Z,3.67
2022-11-24T18:17:22.381Z,4.28
2022-11-24T18:19:48.871Z,4.15
2022-11-24T18:22:15.296Z,5.18
2022-11-24T18:24:41.733Z,4.20
2022-11-24T18:27:08.135Z,3.72
2022-11-24T18:29:34.537Z,4.00
2022-11-24T18:32:04.121Z,3.90
2022-11-24T18:34:30.565Z,4.22
2022-11-24T18:36:58.230Z,4.75
2022-11-24T18:39:24.714Z,4.00
2022-11-24T18:41:51.141Z,4.05
2022-11-24T18:44:20.320Z,4.32
2022-11-24T18:46:46.749Z,5.15
2022-11-24T18:49:13.123Z,4.28
2022-11-24T18:51:39.537Z,5.50
2022-11-24T18:54:05.974Z,5.90
2022-11-24T18:56:32.398Z,6.38
2022-11-24T18:59:03.688Z,6.72
2022-11-24T19:01:30.350Z,7.50
2022-11-24T19:03:58.058Z,7.00
2022-11-24T19:06:34.624Z,6.20
2022-11-24T19:09:06.229Z,6.78
2022-11-24T19:11:37.806Z,5.68
2022-11-24T19:14:05.128Z,5.55
2022-11-24T19:16:31.971Z,4.68
2022-11-24T19:18:58.569Z,4.47
2022-11-24T19:21:25.028Z,4.78
2022-11-24T19:23:51.426Z,5.07
2022-11-24T19:26:17.877Z,4.68
2022-11-24T19:28:45.621Z,5.05
2022-11-24T19:31:13.310Z,4.90
2022-11-24T19:33:40.277Z,5.20
2022-11-24T19:36:07.819Z,5.28
2022-11-24T19:38:34.680Z,4.78
2022-11-24T19:41:08.668Z,5.90
2022-11-24T19:43:35.286Z,5.65
2022-11-24T19:46:08.546Z,5.45
2022-11-24T19:48:39.042Z,5.75
2022-11-24T19:51:07.247Z,5.47
2022-11-24T19:53:33.853Z,5.35
2022-11-24T19:56:07.267Z,5.97
2022-11-24T19:58:34.052Z,5.07
2022-11-24T20:01:10.449Z,5.28
2022-11-24T20:03:42.232Z,5.35
2022-11-24T20:06:09.793Z,6.28
2022-11-24T20:08:36.831Z,6.20
2022-11-24T20:11:14.256Z,5.95
2022-11-24T20:13:41.586Z,5.38
2022-11-24T20:16:12.955Z,5.80
2022-11-24T20:18:42.594Z,5.90
2022-11-24T20:21:11.447Z,6.30
2022-11-24T20:23:38.136Z,5.03
2022-11-24T20:26:05.265Z,4.97
2022-11-24T20:28:31.954Z,5.80
2022-11-24T20:31:09.772Z,5.68
2022-11-24T20:33:36.433Z,4.50
2022-11-24T20:36:10.162Z,4.80
2022-11-24T20:38:37.255Z,4.72
2022-11-24T20:41:09.043Z,4.90
2022-11-24T20:43:36.347Z,5.20
2022-11-24T20:46:07.612Z,5.35
2022-11-24T20:48:34.573Z,5.10
2022-11-24T20:51:05.721Z,4.97
2022-11-24T20:53:32.701Z,5.22
2022-11-24T20:56:06.716Z,4.97
2022-11-24T20:58:33.900Z,5.15
2022-11-24T21:01:05.237Z,5.78
2022-11-24T21:03:31.679Z,5.25
2022-11-24T21:05:58.121Z,5.13
2022-11-24T21:08:24.551Z,5.18
2022-11-24T21:10:57.584Z,5.38
2022-11-24T21:13:24.131Z,5.10
2022-11-24T21:15:50.928Z,5.47
2022-11-24T21:18:17.744Z,4.93
2022-11-24T21:20:44.374Z,5.90
2022-11-24T21:23:10.789Z,5.10
2022-11-24T21:25:37.289Z,5.63
2022-11-24T21:28:03.762Z,6.20
2022-11-24T21:30:30.335Z,5.47
2022-11-24T21:32:56.758Z,5.18
2022-11-24T21:35:23.206Z,6.47
2022-11-24T21:37:49.597Z,5.47
2022-11-24T21:40:17.358Z,7.13
2022-11-24T21:42:44.075Z,5.55
2022-11-24T21:45:10.899Z,5.88
2022-11-24T21:47:37.868Z,5.75
2022-11-24T21:50:06.273Z,6.10
2022-11-24T21:52:32.780Z,5.22
2022-11-24T21:54:59.505Z,6.03
2022-11-24T21:57:26.141Z,5.53
2022-11-24T21:59:52.552Z,5.40
2022-11-24T22:02:19.009Z,4.80
2022-11-24T22:04:45.506Z,5.95
2022-11-24T22:07:13.782Z,4.78
2022-11-24T22:09:40.318Z,5.22
2022-11-24T22:12:06.911Z,4.53
2022-11-24T22:14:38.942Z,5.20
2022-11-24T22:17:06.754Z,5.45
2022-11-24T22:19:33.141Z,5.35
2022-11-24T22:21:59.565Z,4.50
2022-11-24T22:24:27.453Z,4.90
2022-11-24T22:26:54.157Z,4.82
2022-11-24T22:29:20.695Z,4.88
2022-11-24T22:31:47.296Z,4.88
2022-11-24T22:34:13.752Z,4.65
2022-11-24T22:36:40.179Z,5.32
2022-11-24T22:39:06.626Z,5.38
2022-11-24T22:41:34.176Z,4.93
2022-11-24T22:44:00.757Z,5.57
2022-11-24T22:46:27.811Z,5.05
2022-11-24T22:48:54.477Z,5.72
2022-11-24T22:51:26.624Z,5.22
2022-11-24T22:53:54.889Z,5.85
2022-11-24T22:56:21.425Z,5.88
2022-11-24T22:58:47.829Z,5.35
2022-11-24T23:01:15.780Z,5.45
2022-11-24T23:03:42.385Z,5.65
2022-11-24T23:06:19.628Z,5.55
2022-11-24T23:08:46.107Z,6.20
2022-11-24T23:11:14.367Z,6.22
2022-11-24T23:13:41.093Z,6.18
2022-11-24T23:16:17.700Z,6.50
2022-11-24T23:18:45.761Z,6.20
2022-11-24T23:21:23.826Z,6.45
2022-11-24T23:23:51.389Z,7.05
2022-11-24T23:26:27.781Z,7.28
2022-11-24T23:28:54.246Z,7.05
2022-11-24T23:31:22.292Z,6.45
2022-11-24T23:33:48.695Z,6.72
2022-11-24T23:36:16.599Z,6.95
2022-11-24T23:38:43.220Z,6.50
2022-11-24T23:41:11.345Z,7.53
2022-11-24T23:43:38.872Z,7.68
2022-11-24T23:46:06.769Z,6.10
2022-11-24T23:48:33.410Z,6.53
2022-11-24T23:51:22.268Z,6.82
2022-11-24T23:53:48.774Z,6.10
2022-11-24T23:56:16.684Z,6.57
2022-11-24T23:58:43.173Z,6.95
